sensor_id;sensor_type;location;lat;lon;timestamp;temperature;humidity
1728;DHT22;861;48.808;9.006;2022-07-18T00:02:00;19.60;62.70
1728;DHT22;861;48.808;9.006;2022-07-18T00:04:30;19.60;63.20
1728;DHT22;861;48.808;9.006;2022-07-18T00:06:56;19.60;62.70
1728;DHT22;861;48.808;9.006;2022-07-18T00:09:24;19.60;62.90
1728;DHT22;861;48.808;9.006;2022-07-18T00:11:51;19.50;63.50
1728;DHT22;861;48.808;9.006;2022-07-18T00:14:21;19.40;63.60
1728;DHT22;861;48.808;9.006;2022-07-18T00:16:50;19.30;65.30
1728;DHT22;861;48.808;9.006;2022-07-18T00:19:17;19.20;63.50
1728;DHT22;861;48.808;9.006;2022-07-18T00:21:43;19.20;64.50
1728;DHT22;861;48.808;9.006;2022-07-18T00:24:10;19.20;64.20
1728;DHT22;861;48.808;9.006;2022-07-18T00:26:37;19.00;64.60
1728;DHT22;861;48.808;9.006;2022-07-18T00:29:04;19.00;64.70
1728;DHT22;861;48.808;9.006;2022-07-18T00:31:30;19.00;65.10
1728;DHT22;861;48.808;9.006;2022-07-18T00:33:56;19.00;65.50
1728;DHT22;861;48.808;9.006;2022-07-18T00:36:22;18.90;66.00
1728;DHT22;861;48.808;9.006;2022-07-18T00:38:49;19.00;66.40
1728;DHT22;861;48.808;9.006;2022-07-18T00:41:16;18.80;66.50
1728;DHT22;861;48.808;9.006;2022-07-18T00:43:43;18.80;67.00
1728;DHT22;861;48.808;9.006;2022-07-18T00:46:10;18.70;66.90
1728;DHT22;861;48.808;9.006;2022-07-18T00:48:41;18.70;67.50
1728;DHT22;861;48.808;9.006;2022-07-18T00:51:09;18.70;67.50
1728;DHT22;861;48.808;9.006;2022-07-18T00:53:37;18.50;67.50
1728;DHT22;861;48.808;9.006;2022-07-18T00:56:05;18.50;68.00
1728;DHT22;861;48.808;9.006;2022-07-18T00:58:31;18.50;67.80
1728;DHT22;861;48.808;9.006;2022-07-18T01:00:59;18.50;67.90
1728;DHT22;861;48.808;9.006;2022-07-18T01:03:44;18.40;68.00
1728;DHT22;861;48.808;9.006;2022-07-18T01:06:10;18.30;68.00
1728;DHT22;861;48.808;9.006;2022-07-18T01:08:37;18.20;67.90
1728;DHT22;861;48.808;9.006;2022-07-18T01:11:05;18.30;67.70
1728;DHT22;861;48.808;9.006;2022-07-18T01:13:32;18.20;67.70
1728;DHT22;861;48.808;9.006;2022-07-18T01:15:58;18.20;67.90
1728;DHT22;861;48.808;9.006;2022-07-18T01:18:25;18.10;68.00
1728;DHT22;861;48.808;9.006;2022-07-18T01:20:52;18.10;67.90
1728;DHT22;861;48.808;9.006;2022-07-18T01:23:18;18.20;67.80
1728;DHT22;861;48.808;9.006;2022-07-18T01:25:44;18.00;67.90
1728;DHT22;861;48.808;9.006;2022-07-18T01:28:11;18.00;68.20
1728;DHT22;861;48.808;9.006;2022-07-18T01:30:38;17.90;68.50
1728;DHT22;861;48.808;9.006;2022-07-18T01:33:04;17.90;68.90
1728;DHT22;861;48.808;9.006;2022-07-18T01:35:31;17.90;69.30
1728;DHT22;861;48.808;9.006;2022-07-18T01:38:02;17.90;69.20
1728;DHT22;861;48.808;9.006;2022-07-18T01:40:30;17.80;69.90
1728;DHT22;861;48.808;9.006;2022-07-18T01:42:57;17.80;70.40
1728;DHT22;861;48.808;9.006;2022-07-18T01:45:23;17.90;71.40
1728;DHT22;861;48.808;9.006;2022-07-18T01:47:49;18.00;70.80
1728;DHT22;861;48.808;9.006;2022-07-18T01:50:16;18.00;70.80
1728;DHT22;861;48.808;9.006;2022-07-18T01:52:43;17.90;70.80
1728;DHT22;861;48.808;9.006;2022-07-18T01:55:10;17.90;71.10
1728;DHT22;861;48.808;9.006;2022-07-18T01:57:38;17.90;70.80
1728;DHT22;861;48.808;9.006;2022-07-18T02:00:08;17.80;70.80
1728;DHT22;861;48.808;9.006;2022-07-18T02:02:37;17.70;71.40
1728;DHT22;861;48.808;9.006;2022-07-18T02:05:06;17.70;71.60
1728;DHT22;861;48.808;9.006;2022-07-18T02:07:39;17.60;71.90
1728;DHT22;861;48.808;9.006;2022-07-18T02:10:12;17.60;72.10
1728;DHT22;861;48.808;9.006;2022-07-18T02:12:45;17.60;72.30
1728;DHT22;861;48.808;9.006;2022-07-18T02:15:15;17.50;72.10
1728;DHT22;861;48.808;9.006;2022-07-18T02:17:42;17.50;72.70
1728;DHT22;861;48.808;9.006;2022-07-18T02:20:13;17.50;72.60
1728;DHT22;861;48.808;9.006;2022-07-18T02:22:41;17.40;72.20
1728;DHT22;861;48.808;9.006;2022-07-18T02:25:09;17.50;72.10
1728;DHT22;861;48.808;9.006;2022-07-18T02:27:37;17.40;72.70
1728;DHT22;861;48.808;9.006;2022-07-18T02:30:05;17.40;73.00
1728;DHT22;861;48.808;9.006;2022-07-18T02:32:34;17.40;73.30
1728;DHT22;861;48.808;9.006;2022-07-18T02:35:05;17.30;73.30
1728;DHT22;861;48.808;9.006;2022-07-18T02:37:35;17.30;73.50
1728;DHT22;861;48.808;9.006;2022-07-18T02:40:09;17.30;73.50
1728;DHT22;861;48.808;9.006;2022-07-18T02:42:43;17.30;74.30
1728;DHT22;861;48.808;9.006;2022-07-18T02:45:09;17.10;73.40
1728;DHT22;861;48.808;9.006;2022-07-18T02:47:36;17.20;73.60
1728;DHT22;861;48.808;9.006;2022-07-18T02:50:04;17.10;74.10
1728;DHT22;861;48.808;9.006;2022-07-18T02:52:31;17.00;79.20
1728;DHT22;861;48.808;9.006;2022-07-18T02:54:57;17.30;79.40
1728;DHT22;861;48.808;9.006;2022-07-18T02:57:27;17.60;77.60
1728;DHT22;861;48.808;9.006;2022-07-18T02:59:54;17.00;77.30
1728;DHT22;861;48.808;9.006;2022-07-18T03:02:20;17.10;78.10
1728;DHT22;861;48.808;9.006;2022-07-18T03:04:47;16.80;85.90
1728;DHT22;861;48.808;9.006;2022-07-18T03:07:13;17.30;88.00
1728;DHT22;861;48.808;9.006;2022-07-18T03:09:39;16.80;88.70
1728;DHT22;861;48.808;9.006;2022-07-18T03:12:05;17.20;89.60
1728;DHT22;861;48.808;9.006;2022-07-18T03:14:32;17.10;89.20
1728;DHT22;861;48.808;9.006;2022-07-18T03:16:59;16.90;90.10
1728;DHT22;861;48.808;9.006;2022-07-18T03:19:26;16.80;90.20
1728;DHT22;861;48.808;9.006;2022-07-18T03:21:52;17.10;90.30
1728;DHT22;861;48.808;9.006;2022-07-18T03:24:18;16.80;91.00
1728;DHT22;861;48.808;9.006;2022-07-18T03:26:45;17.00;92.30
1728;DHT22;861;48.808;9.006;2022-07-18T03:29:12;16.50;94.10
1728;DHT22;861;48.808;9.006;2022-07-18T03:31:39;16.60;94.20
1728;DHT22;861;48.808;9.006;2022-07-18T03:34:05;16.70;94.20
1728;DHT22;861;48.808;9.006;2022-07-18T03:36:33;16.80;93.80
1728;DHT22;861;48.808;9.006;2022-07-18T03:39:01;16.70;93.50
1728;DHT22;861;48.808;9.006;2022-07-18T03:41:28;16.70;94.40
1728;DHT22;861;48.808;9.006;2022-07-18T03:43:54;16.70;95.30
1728;DHT22;861;48.808;9.006;2022-07-18T03:46:20;16.60;94.20
1728;DHT22;861;48.808;9.006;2022-07-18T03:48:47;16.40;93.60
1728;DHT22;861;48.808;9.006;2022-07-18T03:51:14;16.60;93.20
1728;DHT22;861;48.808;9.006;2022-07-18T03:53:40;16.40;93.00
1728;DHT22;861;48.808;9.006;2022-07-18T03:56:07;16.70;93.10
1728;DHT22;861;48.808;9.006;2022-07-18T03:58:34;16.80;93.20
1728;DHT22;861;48.808;9.006;2022-07-18T04:01:00;16.30;93.00
1728;DHT22;861;48.808;9.006;2022-07-18T04:03:27;16.60;93.20
1728;DHT22;861;48.808;9.006;2022-07-18T04:05:53;16.60;92.70
1728;DHT22;861;48.808;9.006;2022-07-18T04:08:19;16.40;92.70
1728;DHT22;861;48.808;9.006;2022-07-18T04:10:45;16.60;92.80
1728;DHT22;861;48.808;9.006;2022-07-18T04:13:12;16.40;93.10
1728;DHT22;861;48.808;9.006;2022-07-18T04:15:38;16.70;93.30
1728;DHT22;861;48.808;9.006;2022-07-18T04:18:07;16.20;93.20
1728;DHT22;861;48.808;9.006;2022-07-18T04:20:36;16.30;92.50
1728;DHT22;861;48.808;9.006;2022-07-18T04:23:07;16.70;90.10
1728;DHT22;861;48.808;9.006;2022-07-18T04:25:41;16.60;89.10
1728;DHT22;861;48.808;9.006;2022-07-18T04:28:11;16.30;88.10
1728;DHT22;861;48.808;9.006;2022-07-18T04:30:42;16.40;89.70
1728;DHT22;861;48.808;9.006;2022-07-18T04:33:11;16.80;85.60
1728;DHT22;861;48.808;9.006;2022-07-18T04:35:39;16.40;79.00
1728;DHT22;861;48.808;9.006;2022-07-18T04:38:09;16.60;78.90
1728;DHT22;861;48.808;9.006;2022-07-18T04:40:37;16.70;78.40
1728;DHT22;861;48.808;9.006;2022-07-18T04:43:04;16.80;77.70
1728;DHT22;861;48.808;9.006;2022-07-18T04:45:32;16.80;77.90
1728;DHT22;861;48.808;9.006;2022-07-18T04:48:00;16.70;78.00
1728;DHT22;861;48.808;9.006;2022-07-18T04:50:28;16.70;78.60
1728;DHT22;861;48.808;9.006;2022-07-18T04:52:56;17.00;79.20
1728;DHT22;861;48.808;9.006;2022-07-18T04:55:25;16.90;78.80
1728;DHT22;861;48.808;9.006;2022-07-18T04:57:52;17.00;78.90
1728;DHT22;861;48.808;9.006;2022-07-18T05:00:26;17.10;78.30
1728;DHT22;861;48.808;9.006;2022-07-18T05:02:56;17.00;78.10
1728;DHT22;861;48.808;9.006;2022-07-18T05:05:26;17.10;77.80
1728;DHT22;861;48.808;9.006;2022-07-18T05:07:55;17.10;77.70
1728;DHT22;861;48.808;9.006;2022-07-18T05:10:23;17.20;78.50
1728;DHT22;861;48.808;9.006;2022-07-18T05:12:53;17.20;78.40
1728;DHT22;861;48.808;9.006;2022-07-18T05:15:23;17.20;78.60
1728;DHT22;861;48.808;9.006;2022-07-18T05:17:52;17.30;79.20
1728;DHT22;861;48.808;9.006;2022-07-18T05:20:23;17.20;79.10
1728;DHT22;861;48.808;9.006;2022-07-18T05:22:53;17.20;79.50
1728;DHT22;861;48.808;9.006;2022-07-18T05:25:22;17.30;79.90
1728;DHT22;861;48.808;9.006;2022-07-18T05:27:50;17.40;79.50
1728;DHT22;861;48.808;9.006;2022-07-18T05:30:19;17.60;77.70
1728;DHT22;861;48.808;9.006;2022-07-18T05:32:47;17.60;77.50
1728;DHT22;861;48.808;9.006;2022-07-18T05:35:14;17.60;78.40
1728;DHT22;861;48.808;9.006;2022-07-18T05:37:42;17.70;77.90
1728;DHT22;861;48.808;9.006;2022-07-18T05:40:13;17.70;77.20
1728;DHT22;861;48.808;9.006;2022-07-18T05:42:41;17.80;77.00
1728;DHT22;861;48.808;9.006;2022-07-18T05:45:08;17.90;77.30
1728;DHT22;861;48.808;9.006;2022-07-18T05:47:36;18.00;77.40
1728;DHT22;861;48.808;9.006;2022-07-18T05:50:04;18.00;77.30
1728;DHT22;861;48.808;9.006;2022-07-18T05:52:32;18.00;77.80
1728;DHT22;861;48.808;9.006;2022-07-18T05:54:58;18.00;76.80
1728;DHT22;861;48.808;9.006;2022-07-18T05:57:24;18.10;77.00
1728;DHT22;861;48.808;9.006;2022-07-18T05:59:50;18.20;76.60
1728;DHT22;861;48.808;9.006;2022-07-18T06:02:17;18.20;76.20
1728;DHT22;861;48.808;9.006;2022-07-18T06:04:43;18.30;76.10
1728;DHT22;861;48.808;9.006;2022-07-18T06:07:09;18.60;75.70
1728;DHT22;861;48.808;9.006;2022-07-18T06:09:35;18.60;75.70
1728;DHT22;861;48.808;9.006;2022-07-18T06:12:03;18.70;75.10
1728;DHT22;861;48.808;9.006;2022-07-18T06:14:31;18.80;76.10
1728;DHT22;861;48.808;9.006;2022-07-18T06:16:58;19.00;76.80
1728;DHT22;861;48.808;9.006;2022-07-18T06:19:24;19.10;76.60
1728;DHT22;861;48.808;9.006;2022-07-18T06:21:51;19.20;76.60
1728;DHT22;861;48.808;9.006;2022-07-18T06:24:18;19.30;76.40
1728;DHT22;861;48.808;9.006;2022-07-18T06:26:44;19.50;75.50
1728;DHT22;861;48.808;9.006;2022-07-18T06:29:10;19.80;74.60
1728;DHT22;861;48.808;9.006;2022-07-18T06:31:37;19.90;73.20
1728;DHT22;861;48.808;9.006;2022-07-18T06:34:03;20.10;72.40
1728;DHT22;861;48.808;9.006;2022-07-18T06:36:29;20.30;73.10
1728;DHT22;861;48.808;9.006;2022-07-18T06:38:55;20.50;72.40
1728;DHT22;861;48.808;9.006;2022-07-18T06:41:22;20.60;71.20
1728;DHT22;861;48.808;9.006;2022-07-18T06:43:48;20.80;70.10
1728;DHT22;861;48.808;9.006;2022-07-18T06:46:15;21.10;90.60
1728;DHT22;861;48.808;9.006;2022-07-18T06:48:41;21.30;89.60
1728;DHT22;861;48.808;9.006;2022-07-18T06:51:08;21.30;88.70
1728;DHT22;861;48.808;9.006;2022-07-18T06:53:35;21.60;86.70
1728;DHT22;861;48.808;9.006;2022-07-18T06:56:01;21.70;86.50
1728;DHT22;861;48.808;9.006;2022-07-18T06:58:30;22.00;86.20
1728;DHT22;861;48.808;9.006;2022-07-18T07:00:57;22.00;86.40
1728;DHT22;861;48.808;9.006;2022-07-18T07:03:24;22.10;86.10
1728;DHT22;861;48.808;9.006;2022-07-18T07:05:50;22.30;86.00
1728;DHT22;861;48.808;9.006;2022-07-18T07:08:16;22.40;84.70
1728;DHT22;861;48.808;9.006;2022-07-18T07:10:42;22.60;84.20
1728;DHT22;861;48.808;9.006;2022-07-18T07:13:08;22.80;82.20
1728;DHT22;861;48.808;9.006;2022-07-18T07:15:34;22.90;82.10
1728;DHT22;861;48.808;9.006;2022-07-18T07:18:01;22.90;81.90
1728;DHT22;861;48.808;9.006;2022-07-18T07:20:27;23.30;82.60
1728;DHT22;861;48.808;9.006;2022-07-18T07:22:56;23.30;80.20
1728;DHT22;861;48.808;9.006;2022-07-18T07:25:25;23.50;80.60
1728;DHT22;861;48.808;9.006;2022-07-18T07:27:53;23.70;81.60
1728;DHT22;861;48.808;9.006;2022-07-18T07:30:21;23.90;84.00
1728;DHT22;861;48.808;9.006;2022-07-18T07:32:47;24.00;85.00
1728;DHT22;861;48.808;9.006;2022-07-18T07:35:16;24.10;82.50
1728;DHT22;861;48.808;9.006;2022-07-18T07:37:55;24.20;84.20
1728;DHT22;861;48.808;9.006;2022-07-18T07:40:29;24.40;69.70
1728;DHT22;861;48.808;9.006;2022-07-18T07:43:07;24.50;72.20
1728;DHT22;861;48.808;9.006;2022-07-18T07:45:39;24.80;83.00
1728;DHT22;861;48.808;9.006;2022-07-18T07:50:35;25.10;56.30
1728;DHT22;861;48.808;9.006;2022-07-18T07:53:01;25.20;56.80
1728;DHT22;861;48.808;9.006;2022-07-18T07:55:29;25.30;55.90
1728;DHT22;861;48.808;9.006;2022-07-18T07:57:55;25.50;55.60
1728;DHT22;861;48.808;9.006;2022-07-18T08:00:22;25.60;54.90
1728;DHT22;861;48.808;9.006;2022-07-18T08:03:01;25.80;55.30
1728;DHT22;861;48.808;9.006;2022-07-18T08:05:36;25.90;54.70
1728;DHT22;861;48.808;9.006;2022-07-18T08:08:09;26.00;54.70
1728;DHT22;861;48.808;9.006;2022-07-18T08:10:35;26.20;54.90
1728;DHT22;861;48.808;9.006;2022-07-18T08:13:01;26.30;54.00
1728;DHT22;861;48.808;9.006;2022-07-18T08:15:28;26.50;54.10
1728;DHT22;861;48.808;9.006;2022-07-18T08:17:54;26.60;53.20
1728;DHT22;861;48.808;9.006;2022-07-18T08:20:23;26.60;55.10
1728;DHT22;861;48.808;9.006;2022-07-18T08:22:59;26.80;54.80
1728;DHT22;861;48.808;9.006;2022-07-18T08:25:33;26.90;52.90
1728;DHT22;861;48.808;9.006;2022-07-18T08:28:05;27.00;53.10
1728;DHT22;861;48.808;9.006;2022-07-18T08:30:33;27.10;55.00
1728;DHT22;861;48.808;9.006;2022-07-18T08:33:01;27.20;55.30
1728;DHT22;861;48.808;9.006;2022-07-18T08:35:28;27.30;55.70
1728;DHT22;861;48.808;9.006;2022-07-18T08:37:58;27.40;54.40
1728;DHT22;861;48.808;9.006;2022-07-18T08:40:25;27.50;53.70
1728;DHT22;861;48.808;9.006;2022-07-18T08:42:56;27.50;53.40
1728;DHT22;861;48.808;9.006;2022-07-18T08:45:25;27.70;54.40
1728;DHT22;861;48.808;9.006;2022-07-18T08:47:52;27.70;53.40
1728;DHT22;861;48.808;9.006;2022-07-18T08:50:19;28.00;53.20
1728;DHT22;861;48.808;9.006;2022-07-18T08:52:47;28.00;53.70
1728;DHT22;861;48.808;9.006;2022-07-18T08:55:15;28.00;53.00
1728;DHT22;861;48.808;9.006;2022-07-18T08:57:42;28.00;52.90
1728;DHT22;861;48.808;9.006;2022-07-18T09:00:10;28.20;54.10
1728;DHT22;861;48.808;9.006;2022-07-18T09:02:37;28.30;52.00
1728;DHT22;861;48.808;9.006;2022-07-18T09:05:16;28.40;53.30
1728;DHT22;861;48.808;9.006;2022-07-18T09:07:45;28.60;52.80
1728;DHT22;861;48.808;9.006;2022-07-18T09:10:13;28.60;50.60
1728;DHT22;861;48.808;9.006;2022-07-18T09:12:56;28.70;51.40
1728;DHT22;861;48.808;9.006;2022-07-18T09:15:23;28.80;52.10
1728;DHT22;861;48.808;9.006;2022-07-18T09:17:50;29.00;51.00
1728;DHT22;861;48.808;9.006;2022-07-18T09:20:16;29.10;50.50
1728;DHT22;861;48.808;9.006;2022-07-18T09:22:46;29.30;50.30
1728;DHT22;861;48.808;9.006;2022-07-18T09:25:20;29.40;48.80
1728;DHT22;861;48.808;9.006;2022-07-18T09:27:53;29.40;50.60
1728;DHT22;861;48.808;9.006;2022-07-18T09:30:33;29.50;48.50
1728;DHT22;861;48.808;9.006;2022-07-18T09:35:49;29.50;49.80
1728;DHT22;861;48.808;9.006;2022-07-18T09:38:30;29.90;49.80
1728;DHT22;861;48.808;9.006;2022-07-18T09:40:56;29.90;47.70
1728;DHT22;861;48.808;9.006;2022-07-18T09:43:26;29.90;48.40
1728;DHT22;861;48.808;9.006;2022-07-18T19:33:41;29.90;44.40
1728;DHT22;861;48.808;9.006;2022-07-18T19:36:08;29.80;44.40
1728;DHT22;861;48.808;9.006;2022-07-18T19:38:34;29.70;44.80
1728;DHT22;861;48.808;9.006;2022-07-18T19:41:00;29.60;45.20
1728;DHT22;861;48.808;9.006;2022-07-18T19:43:27;29.60;45.10
1728;DHT22;861;48.808;9.006;2022-07-18T19:45:54;29.50;45.40
1728;DHT22;861;48.808;9.006;2022-07-18T19:48:20;29.40;46.00
1728;DHT22;861;48.808;9.006;2022-07-18T19:50:48;29.40;45.30
1728;DHT22;861;48.808;9.006;2022-07-18T19:53:14;29.30;46.20
1728;DHT22;861;48.808;9.006;2022-07-18T19:55:41;29.30;46.80
1728;DHT22;861;48.808;9.006;2022-07-18T19:58:09;29.30;47.50
1728;DHT22;861;48.808;9.006;2022-07-18T20:00:37;29.20;46.60
1728;DHT22;861;48.808;9.006;2022-07-18T20:03:08;29.10;46.10
1728;DHT22;861;48.808;9.006;2022-07-18T20:05:35;28.90;46.40
1728;DHT22;861;48.808;9.006;2022-07-18T20:08:04;28.80;47.10
1728;DHT22;861;48.808;9.006;2022-07-18T20:10:32;28.70;47.70
1728;DHT22;861;48.808;9.006;2022-07-18T20:13:00;28.50;47.60
1728;DHT22;861;48.808;9.006;2022-07-18T20:15:28;28.40;48.30
1728;DHT22;861;48.808;9.006;2022-07-18T20:17:55;28.20;48.00
1728;DHT22;861;48.808;9.006;2022-07-18T20:20:22;28.10;49.20
1728;DHT22;861;48.808;9.006;2022-07-18T20:22:48;28.10;49.50
1728;DHT22;861;48.808;9.006;2022-07-18T20:25:15;28.00;49.60
1728;DHT22;861;48.808;9.006;2022-07-18T20:27:42;28.00;50.30
1728;DHT22;861;48.808;9.006;2022-07-18T20:30:09;27.90;50.60
1728;DHT22;861;48.808;9.006;2022-07-18T20:32:36;27.70;51.20
1728;DHT22;861;48.808;9.006;2022-07-18T20:35:04;27.70;51.20
1728;DHT22;861;48.808;9.006;2022-07-18T20:37:31;27.60;52.40
1728;DHT22;861;48.808;9.006;2022-07-18T20:39:57;27.50;52.10
1728;DHT22;861;48.808;9.006;2022-07-18T20:42:23;27.40;52.30
1728;DHT22;861;48.808;9.006;2022-07-18T20:44:49;27.20;52.60
1728;DHT22;861;48.808;9.006;2022-07-18T20:47:16;27.20;53.00
1728;DHT22;861;48.808;9.006;2022-07-18T20:49:42;27.10;53.20
1728;DHT22;861;48.808;9.006;2022-07-18T20:52:08;27.00;53.30
1728;DHT22;861;48.808;9.006;2022-07-18T20:54:34;26.90;53.80
1728;DHT22;861;48.808;9.006;2022-07-18T20:57:01;26.70;53.20
1728;DHT22;861;48.808;9.006;2022-07-18T20:59:27;26.50;51.80
1728;DHT22;861;48.808;9.006;2022-07-18T21:01:53;26.40;52.30
1728;DHT22;861;48.808;9.006;2022-07-18T21:04:19;26.20;52.80
1728;DHT22;861;48.808;9.006;2022-07-18T21:06:45;26.10;53.10
1728;DHT22;861;48.808;9.006;2022-07-18T21:09:11;25.90;53.10
1728;DHT22;861;48.808;9.006;2022-07-18T21:11:37;25.80;54.50
1728;DHT22;861;48.808;9.006;2022-07-18T21:14:04;25.80;54.80
1728;DHT22;861;48.808;9.006;2022-07-18T21:16:50;25.70;54.60
1728;DHT22;861;48.808;9.006;2022-07-18T21:19:17;25.60;54.40
1728;DHT22;861;48.808;9.006;2022-07-18T21:21:44;25.50;54.30
1728;DHT22;861;48.808;9.006;2022-07-18T21:24:13;25.40;54.50
1728;DHT22;861;48.808;9.006;2022-07-18T21:26:39;25.30;54.70
1728;DHT22;861;48.808;9.006;2022-07-18T21:29:06;25.30;54.80
1728;DHT22;861;48.808;9.006;2022-07-18T21:31:32;25.20;55.40
1728;DHT22;861;48.808;9.006;2022-07-18T21:34:02;25.10;56.20
1728;DHT22;861;48.808;9.006;2022-07-18T21:36:30;25.00;55.90
1728;DHT22;861;48.808;9.006;2022-07-18T21:38:57;25.10;56.80
1728;DHT22;861;48.808;9.006;2022-07-18T21:41:23;25.00;55.90
1728;DHT22;861;48.808;9.006;2022-07-18T21:43:49;24.90;55.50
1728;DHT22;861;48.808;9.006;2022-07-18T21:46:16;24.90;55.40
1728;DHT22;861;48.808;9.006;2022-07-18T21:48:42;25.00;55.90
1728;DHT22;861;48.808;9.006;2022-07-18T21:51:08;24.90;55.70
1728;DHT22;861;48.808;9.006;2022-07-18T21:53:34;24.90;56.50
1728;DHT22;861;48.808;9.006;2022-07-18T21:56:02;24.90;56.70
1728;DHT22;861;48.808;9.006;2022-07-18T21:58:29;24.70;56.00
1728;DHT22;861;48.808;9.006;2022-07-18T22:00:56;24.70;56.70
1728;DHT22;861;48.808;9.006;2022-07-18T22:03:22;24.70;57.30
1728;DHT22;861;48.808;9.006;2022-07-18T22:05:48;24.70;56.80
1728;DHT22;861;48.808;9.006;2022-07-18T22:08:14;24.60;57.00
1728;DHT22;861;48.808;9.006;2022-07-18T22:10:41;24.50;57.60
1728;DHT22;861;48.808;9.006;2022-07-18T22:13:07;24.40;57.60
1728;DHT22;861;48.808;9.006;2022-07-18T22:15:33;24.20;57.70
1728;DHT22;861;48.808;9.006;2022-07-18T22:17:59;24.10;57.50
1728;DHT22;861;48.808;9.006;2022-07-18T22:20:25;24.00;58.20
1728;DHT22;861;48.808;9.006;2022-07-18T22:22:52;23.80;58.30
1728;DHT22;861;48.808;9.006;2022-07-18T22:25:18;23.70;58.50
1728;DHT22;861;48.808;9.006;2022-07-18T22:27:44;23.60;58.50
1728;DHT22;861;48.808;9.006;2022-07-18T22:30:12;23.50;58.90
1728;DHT22;861;48.808;9.006;2022-07-18T22:32:41;23.50;58.80
1728;DHT22;861;48.808;9.006;2022-07-18T22:35:08;23.50;58.80
1728;DHT22;861;48.808;9.006;2022-07-18T22:37:35;23.40;58.50
1728;DHT22;861;48.808;9.006;2022-07-18T22:40:02;23.40;58.80
1728;DHT22;861;48.808;9.006;2022-07-18T22:42:30;23.30;58.80
1728;DHT22;861;48.808;9.006;2022-07-18T22:44:56;23.20;58.90
1728;DHT22;861;48.808;9.006;2022-07-18T22:47:22;23.20;59.20
1728;DHT22;861;48.808;9.006;2022-07-18T22:49:48;23.20;60.20
1728;DHT22;861;48.808;9.006;2022-07-18T22:52:14;23.20;60.60
1728;DHT22;861;48.808;9.006;2022-07-18T22:54:40;23.10;60.90
1728;DHT22;861;48.808;9.006;2022-07-18T22:57:06;23.10;60.60
1728;DHT22;861;48.808;9.006;2022-07-18T22:59:33;23.10;60.70
1728;DHT22;861;48.808;9.006;2022-07-18T23:02:00;23.10;59.60
1728;DHT22;861;48.808;9.006;2022-07-18T23:04:27;23.00;59.80
1728;DHT22;861;48.808;9.006;2022-07-18T23:06:53;23.00;60.70
1728;DHT22;861;48.808;9.006;2022-07-18T23:09:21;23.00;61.20
1728;DHT22;861;48.808;9.006;2022-07-18T23:11:47;22.90;61.00
1728;DHT22;861;48.808;9.006;2022-07-18T23:14:14;22.80;61.70
1728;DHT22;861;48.808;9.006;2022-07-18T23:16:40;22.90;62.60
1728;DHT22;861;48.808;9.006;2022-07-18T23:19:06;22.90;62.10
1728;DHT22;861;48.808;9.006;2022-07-18T23:21:32;22.90;62.20
1728;DHT22;861;48.808;9.006;2022-07-18T23:23:58;22.80;63.60
1728;DHT22;861;48.808;9.006;2022-07-18T23:26:24;22.80;63.10
1728;DHT22;861;48.808;9.006;2022-07-18T23:28:50;22.80;63.40
1728;DHT22;861;48.808;9.006;2022-07-18T23:31:17;22.70;63.70
1728;DHT22;861;48.808;9.006;2022-07-18T23:33:43;22.60;63.30
1728;DHT22;861;48.808;9.006;2022-07-18T23:36:10;22.50;63.80
1728;DHT22;861;48.808;9.006;2022-07-18T23:38:36;22.30;64.20
1728;DHT22;861;48.808;9.006;2022-07-18T23:41:02;22.20;65.10
1728;DHT22;861;48.808;9.006;2022-07-18T23:43:29;22.00;65.40
1728;DHT22;861;48.808;9.006;2022-07-18T23:45:55;22.00;66.00
1728;DHT22;861;48.808;9.006;2022-07-18T23:48:21;22.00;65.60
1728;DHT22;861;48.808;9.006;2022-07-18T23:50:47;22.00;65.60
1728;DHT22;861;48.808;9.006;2022-07-18T23:53:13;21.80;65.80
1728;DHT22;861;48.808;9.006;2022-07-18T23:55:40;21.80;66.50
1728;DHT22;861;48.808;9.006;2022-07-18T23:58:06;21.70;66.70
